Terminal Aerodrome Forecast
Issued by NWS Sterling, VA

Current Version | Previous Version | Graphics & Text | Print | Product List | Glossary On
Versions: 1 2 3 4 5 6 7 8 9 10 11 12 13 14 15 16 17 18 19 20 21 22 23 24 25 26
000
FTUS41 KLWX 260837 AAA
TAFIAD
TAF AMD
KIAD 260837Z 2609/2712 18007KT P6SM SCT130
     FM261800 20009KT P6SM SCT050 BKN090
     FM270100 18005KT P6SM SCT050 BKN060=

USA.gov is the U.S. government's official web portal to all federal, state and local government web resources and services.